Blue Bay — V2CE6 — position and weather

sailwx.info

Track history (hours):
 
Tides and Currents Weather Stations Pressure Air Temp Water Temp Dewpoint Dewpoint Depression Visibility Wind Speed Wind Dir Waves Ship Positions

Blue Bay

Last reported at 2017-Apr-30 06:56 UTC. Time now 2017-Apr-30 07:07 UTC.
Position N 51°30' E 000°58'.

Length 90 m; draft 5.6 m.

Type: Cargo ship. MMSI: 304519000.

Date/timePositionNaut miles runAvg speedWind from/ knotsBaromVisibWave heightAir tempDewpointWater temp
2017-Apr-30 06:56N 51°30' E 000°58'0 0.0
2017-Apr-30 06:20N 51°30' E 000°58'0 0.0
2017-Apr-30 05:59N 51°30' E 000°58'0 0.0
2017-Apr-30 05:29N 51°30' E 000°58'0 0.0
2017-Apr-30 04:59N 51°30' E 000°58'0 0.0
2017-Apr-30 04:29N 51°30' E 000°58'0 0.1
2017-Apr-30 03:59N 51°30' E 000°58'0 0.3
2017-Apr-30 03:29N 51°30' E 000°58'0 0.1
2017-Apr-30 02:59N 51°30' E 000°58'0 0.0
2017-Apr-30 02:29N 51°30' E 000°58'0 0.0
2017-Apr-30 01:53N 51°30' E 000°58'0 0.0
2017-Apr-30 01:23N 51°30' E 000°58'0 0.0
2017-Apr-30 00:59N 51°30' E 000°58'0 0.0
2017-Apr-30 00:26N 51°30' E 000°58'0 0.0
2017-Apr-29 23:56N 51°30' E 000°58'0 0.0
2017-Apr-29 23:29N 51°30' E 000°58'0 0.0
2017-Apr-29 22:53N 51°30' E 000°58'0 0.0
2017-Apr-29 22:29N 51°30' E 000°58'0 0.1
2017-Apr-29 21:59N 51°30' E 000°58'0 0.0
2017-Apr-29 21:26N 51°30' E 000°58'0 0.2
2017-Apr-29 20:59N 51°30' E 000°58'0 0.1
2017-Apr-29 20:17N 51°30' E 000°58'0 0.0
2017-Apr-29 19:59N 51°30' E 000°58'0 0.0
2017-Apr-29 19:26N 51°30' E 000°58'0 0.0
2017-Apr-29 18:59N 51°30' E 000°58'0 0.0
2017-Apr-29 18:29N 51°30' E 000°58'0 0.0
2017-Apr-29 17:56N 51°30' E 000°58'0 0.0
2017-Apr-29 17:23N 51°30' E 000°58'0 0.0
2017-Apr-29 16:56N 51°30' E 000°58'0 0.0
2017-Apr-29 16:20N 51°30' E 000°58'0 0.0
2017-Apr-29 15:59N 51°30' E 000°58'1 3.1
2017-Apr-29 15:30N 51°29' E 000°57'4 8.8
2017-Apr-29 15:01N 51°30' E 001°03'1110.8
2017-Apr-29 14:00N 51°29' E 001°21'611.3
2017-Apr-29 13:31N 51°30' E 001°30'510.5
2017-Apr-29 13:01N 51°32' E 001°37'510.6
2017-Apr-29 12:31N 51°34' E 001°45'510.7
2017-Apr-29 12:01N 51°37' E 001°53'611.2
2017-Apr-29 11:31N 51°40' E 002°00'611.9
2017-Apr-29 11:01N 51°43' E 002°08'612.1
2017-Apr-29 10:30N 51°47' E 002°16'58 9.7
2017-Apr-29 04:31N 52°30' E 003°19'0 7.7
2017-Apr-29 04:29N 52°31' E 003°19'4 7.8
2017-Apr-29 04:00N 52°33' E 003°23'4 7.8
2017-Apr-29 03:30N 52°36' E 003°28'4 8.1
2017-Apr-29 03:00N 52°39' E 003°32'170 8.9
2017-Apr-28 07:52N 54°01' E 007°41'4 9.0
2017-Apr-28 07:27N 54°02' E 007°48'4 9.5
2017-Apr-28 06:59N 54°02' E 007°55'5 9.7
2017-Apr-28 06:30N 54°02' E 008°03'510.2
2017-Apr-28 06:00N 54°01' E 008°12'611.2
2017-Apr-28 05:30N 53°60' E 008°21'612.2
2017-Apr-28 05:00N 53°59' E 008°31'612.4
2017-Apr-28 04:30N 53°56' E 008°40'612.6
2017-Apr-28 04:00N 53°51' E 008°47'611.1
2017-Apr-28 03:30N 53°51' E 008°57'5 9.6
2017-Apr-28 03:01N 53°53' E 009°04'4 8.8
2017-Apr-28 02:30N 53°53' E 009°12'4 8.0
2017-Apr-28 02:00N 53°52' E 009°18'4 7.3
2017-Apr-28 01:30N 53°49' E 009°22'4 7.3
2017-Apr-28 01:00N 53°46' E 009°24'4 7.2
2017-Apr-28 00:30N 53°43' E 009°29'3 6.9
2017-Apr-28 00:00N 53°40' E 009°31'4 7.2
2017-Apr-27 23:30N 53°37' E 009°34'5 9.1
2017-Apr-27 23:00N 53°34' E 009°40'611.2
2017-Apr-27 22:30N 53°33' E 009°50'5 9.1
2017-Apr-27 22:00N 53°31' E 009°56'3 5.4
2017-Apr-27 21:30N 53°28' E 009°58'0 0.0
2017-Apr-27 20:57N 53°28' E 009°58'0 0.0
2017-Apr-27 20:27N 53°28' E 009°58'0 0.0
2017-Apr-27 19:57N 53°28' E 009°58'0 0.0
2017-Apr-27 19:30N 53°28' E 009°58'0 0.0
2017-Apr-27 19:00N 53°28' E 009°58'0 0.0
2017-Apr-27 18:30N 53°28' E 009°58'0 0.0
2017-Apr-27 18:00N 53°28' E 009°58'0 0.0
2017-Apr-27 17:27N 53°28' E 009°58'0 0.0
2017-Apr-27 16:57N 53°28' E 009°58'0 0.0
2017-Apr-27 16:30N 53°28' E 009°58'0 0.0
2017-Apr-27 16:00N 53°28' E 009°58'0 0.0
2017-Apr-27 15:30N 53°28' E 009°58'0 0.0
2017-Apr-27 14:57N 53°28' E 009°58'0 0.0
2017-Apr-27 14:00N 53°28' E 009°58'0 0.0
2017-Apr-27 13:30N 53°28' E 009°58'0 0.0
2017-Apr-27 12:57N 53°28' E 009°58'0 0.0
2017-Apr-27 12:30N 53°28' E 009°58'0 0.0
2017-Apr-27 12:00N 53°28' E 009°58'0 0.0
2017-Apr-27 11:30N 53°28' E 009°58'0 0.0
2017-Apr-27 10:57N 53°28' E 009°58'0 0.0
2017-Apr-27 10:27N 53°28' E 009°58'0 0.0
2017-Apr-27 09:57N 53°28' E 009°58'0 0.7
2017-Apr-27 09:30N 53°29' E 009°58'0 0.6
2017-Apr-27 08:59N 53°28' E 009°58'0 0.0
2017-Apr-27 08:29N 53°28' E 009°58'0 0.0
2017-Apr-27 07:59N 53°28' E 009°58'0 0.0
2017-Apr-27 07:26N 53°28' E 009°58'0 0.0
2017-Apr-27 06:59N 53°28' E 009°58'0 0.0
2017-Apr-27 06:29N 53°28' E 009°58'0 0.0
2017-Apr-27 05:59N 53°28' E 009°58'0 0.0
2017-Apr-27 05:29N 53°28' E 009°58'0 0.0
2017-Apr-27 04:59N 53°28' E 009°58'0 0.0
2017-Apr-27 04:29N 53°28' E 009°58'0 0.0
2017-Apr-27 04:01N 53°28' E 009°58'2 3.6
2017-Apr-27 03:30N 53°30' E 009°57'3 5.9
2017-Apr-27 03:00N 53°32' E 009°55'611.4
2017-Apr-27 02:30N 53°34' E 009°45'5 9.6
2017-Apr-27 02:01N 53°35' E 009°37'3 6.9
2017-Apr-27 01:30N 53°37' E 009°33'0 0.1
2017-Apr-27 01:00N 53°37' E 009°33'0 0.0
2017-Apr-27 00:31N 53°37' E 009°33'0 0.0
2017-Apr-27 00:00N 53°37' E 009°33'0 0.0
2017-Apr-26 23:30N 53°37' E 009°33'0 0.1
2017-Apr-26 23:00N 53°37' E 009°33'0 0.0
2017-Apr-26 22:30N 53°37' E 009°33'0 0.2
2017-Apr-26 22:00N 53°37' E 009°33'0 0.1
2017-Apr-26 21:30N 53°37' E 009°33'0 0.0
2017-Apr-26 21:01N 53°37' E 009°33'0 0.0
2017-Apr-26 20:30N 53°37' E 009°33'0 0.0
2017-Apr-26 20:00N 53°37' E 009°33'0 0.0
2017-Apr-26 19:31N 53°37' E 009°33'0 0.0
2017-Apr-26 19:00N 53°37' E 009°33'0 0.0
2017-Apr-26 18:30N 53°37' E 009°33'0 0.0
2017-Apr-26 18:00N 53°37' E 009°33'0 0.0
2017-Apr-26 17:30N 53°37' E 009°33'0 0.1
2017-Apr-26 17:00N 53°37' E 009°33'0 0.0
2017-Apr-26 16:30N 53°37' E 009°33'0 0.1
2017-Apr-26 16:00N 53°37' E 009°33'0 0.2
2017-Apr-26 15:30N 53°37' E 009°33'0 0.1
2017-Apr-26 15:00N 53°37' E 009°33'0 0.0
2017-Apr-26 14:30N 53°37' E 009°33'0 0.0
2017-Apr-26 13:30N 53°37' E 009°33'0 0.0
2017-Apr-26 13:00N 53°37' E 009°33'0 0.0
2017-Apr-26 12:30N 53°37' E 009°33'0 0.0
2017-Apr-26 12:00N 53°37' E 009°33'0 0.0
2017-Apr-26 11:30N 53°37' E 009°33'0 0.0
2017-Apr-26 11:00N 53°37' E 009°33'0 0.0
2017-Apr-26 10:31N 53°37' E 009°33'0 0.0
2017-Apr-26 10:00N 53°37' E 009°33'0 0.2
2017-Apr-26 09:30N 53°37' E 009°33'0 0.0
2017-Apr-26 09:00N 53°37' E 009°33'0 0.0
2017-Apr-26 08:30N 53°37' E 009°33'0 0.0
2017-Apr-26 08:00N 53°37' E 009°33'0 0.0
2017-Apr-26 07:31N 53°37' E 009°33'0 0.0
2017-Apr-26 07:00N 53°37' E 009°33'0 0.0
2017-Apr-26 06:30N 53°37' E 009°33'0 0.0
2017-Apr-26 06:00N 53°37' E 009°33'0 0.0
2017-Apr-26 05:30N 53°37' E 009°33'0 0.0
2017-Apr-26 05:01N 53°37' E 009°33'0 0.0
2017-Apr-26 04:30N 53°37' E 009°33'0 0.0
2017-Apr-26 04:00N 53°37' E 009°33'0 0.1
2017-Apr-26 03:30N 53°37' E 009°33'0 0.1
2017-Apr-26 03:00N 53°37' E 009°33'0 0.2
2017-Apr-26 02:31N 53°37' E 009°33'0 0.0
2017-Apr-26 02:00N 53°37' E 009°33'0 0.0
2017-Apr-26 01:30N 53°37' E 009°33'0 0.0
2017-Apr-26 01:00N 53°37' E 009°33'0 0.0
2017-Apr-26 00:30N 53°37' E 009°33'0 0.0
2017-Apr-26 00:00N 53°37' E 009°33'0 0.0
2017-Apr-25 23:31N 53°37' E 009°33'0 0.0
2017-Apr-25 23:00N 53°37' E 009°33'2 3.9
2017-Apr-25 22:30N 53°39' E 009°31'612.6
2017-Apr-25 22:01N 53°44' E 009°26'713.1
2017-Apr-25 21:30N 53°50' E 009°21'612.9
2017-Apr-25 21:00N 53°53' E 009°11'611.8
2017-Apr-25 20:30N 53°51' E 009°01'611.6
2017-Apr-25 20:00N 53°50' E 008°52'510.2
2017-Apr-25 19:31N 53°52' E 008°44'510.5
2017-Apr-25 19:00N 53°57' E 008°39'510.6
2017-Apr-25 18:30N 53°58' E 008°30'510.2
2017-Apr-25 18:00N 53°59' E 008°21'611.4
2017-Apr-25 17:30N 53°59' E 008°12'510.0
2017-Apr-25 17:00N 53°59' E 008°03'510.0
2017-Apr-25 16:29N 54°02' E 007°56'41 9.5
2017-Apr-25 12:08N 54°41' E 007°33'1 9.8
2017-Apr-25 12:00N 54°43' E 007°33'510.1
2017-Apr-25 11:30N 54°48' E 007°32'510.3
2017-Apr-25 11:00N 54°53' E 007°31'510.3
2017-Apr-25 10:30N 54°58' E 007°30'510.5
2017-Apr-25 10:00N 55°03' E 007°29'510.5
2017-Apr-25 09:30N 55°08' E 007°28'510.7
2017-Apr-25 09:00N 55°14' E 007°27'610.9
2017-Apr-25 08:30N 55°19' E 007°26'811.2
2017-Apr-25 07:46N 55°27' E 007°24'411.4
2017-Apr-25 07:28N 55°31' E 007°23'13110.4
2017-Apr-24 18:53N 57°38' E 006°27'410.0
2017-Apr-24 18:30N 57°41' E 006°27'510.0
2017-Apr-24 18:00N 57°46' E 006°26'510.1
2017-Apr-24 17:30N 57°51' E 006°26'5 9.8
2017-Apr-24 17:00N 57°56' E 006°24'5 9.9
2017-Apr-24 16:30N 58°01' E 006°24'510.8
2017-Apr-24 16:00N 58°07' E 006°23'4 7.5
2017-Apr-24 15:30N 58°09' E 006°28'4 8.1
2017-Apr-24 15:00N 58°11' E 006°35'4 8.8
2017-Apr-24 14:29N 58°13' E 006°43'7 6.6
2017-Apr-24 13:28N 58°17' E 006°53'0 0.0
2017-Apr-24 12:58N 58°17' E 006°53'0 0.0
2017-Apr-24 12:28N 58°17' E 006°53'0 0.0
2017-Apr-24 11:58N 58°16' E 006°53'0 0.0
2017-Apr-24 11:28N 58°17' E 006°53'0 0.0
2017-Apr-24 10:58N 58°17' E 006°53'0 0.0
2017-Apr-24 10:22N 58°17' E 006°53'0 0.0
2017-Apr-24 09:55N 58°17' E 006°53'0 0.0
2017-Apr-24 09:28N 58°17' E 006°53'0 0.0
2017-Apr-24 08:58N 58°17' E 006°53'0 0.0
2017-Apr-24 08:28N 58°17' E 006°53'0 0.0
2017-Apr-24 07:58N 58°17' E 006°53'0 0.0
2017-Apr-24 07:28N 58°17' E 006°53'0 0.0
2017-Apr-24 06:55N 58°17' E 006°53'0 0.0
2017-Apr-24 06:25N 58°17' E 006°53'0 0.0
2017-Apr-24 05:58N 58°17' E 006°53'0 0.0
2017-Apr-24 05:22N 58°17' E 006°53'0 0.0
2017-Apr-24 04:58N 58°17' E 006°53'0 0.0
2017-Apr-24 04:28N 58°17' E 006°53'0 0.0
2017-Apr-24 03:55N 58°17' E 006°53'0 0.0
2017-Apr-24 03:28N 58°17' E 006°53'0 0.0
2017-Apr-24 02:58N 58°17' E 006°53'0 0.0
2017-Apr-24 02:28N 58°17' E 006°53'0 0.0
2017-Apr-24 01:58N 58°17' E 006°53'0 0.0
2017-Apr-24 01:28N 58°17' E 006°53'0 0.0
2017-Apr-24 00:55N 58°17' E 006°53'0 0.0
2017-Apr-24 00:25N 58°17' E 006°53'0 0.0
2017-Apr-23 23:58N 58°17' E 006°53'0 0.0
2017-Apr-23 23:28N 58°17' E 006°53'0 0.0
2017-Apr-23 22:55N 58°17' E 006°53'0 0.0
2017-Apr-23 22:25N 58°17' E 006°53'0 0.0
2017-Apr-23 21:58N 58°17' E 006°53'0 0.0
2017-Apr-23 21:25N 58°17' E 006°53'0 0.0
2017-Apr-23 20:58N 58°17' E 006°53'0 0.0
2017-Apr-23 20:28N 58°17' E 006°53'0 0.0
2017-Apr-23 19:58N 58°17' E 006°53'0 0.0
2017-Apr-23 19:28N 58°17' E 006°53'0 0.0
2017-Apr-23 18:58N 58°17' E 006°53'0 0.0
2017-Apr-23 18:28N 58°17' E 006°53'0 0.0
2017-Apr-23 17:49N 58°17' E 006°53'0 0.0
2017-Apr-23 17:28N 58°17' E 006°53'0 0.0
2017-Apr-23 16:58N 58°17' E 006°53'0 0.0
2017-Apr-23 16:28N 58°17' E 006°53'0 0.0
2017-Apr-23 15:58N 58°17' E 006°53'0 0.0
2017-Apr-23 15:28N 58°17' E 006°53'0 0.0
2017-Apr-23 14:55N 58°17' E 006°53'0 0.0
2017-Apr-23 13:55N 58°17' E 006°53'0 0.0
2017-Apr-23 13:28N 58°17' E 006°53'0 0.0
2017-Apr-23 12:58N 58°17' E 006°53'0 0.0
2017-Apr-23 12:28N 58°17' E 006°53'0 0.0
2017-Apr-23 11:58N 58°17' E 006°53'0 0.0
2017-Apr-23 11:25N 58°17' E 006°53'0 0.0
2017-Apr-23 10:55N 58°17' E 006°53'0 0.0
2017-Apr-23 10:28N 58°17' E 006°53'0 0.0
2017-Apr-23 09:55N 58°17' E 006°53'0 0.0
2017-Apr-23 09:28N 58°17' E 006°53'0 0.0
2017-Apr-23 08:58N 58°17' E 006°53'0 0.0
2017-Apr-23 08:28N 58°17' E 006°53'0 0.0
2017-Apr-23 07:58N 58°17' E 006°53'0 0.0
2017-Apr-23 07:28N 58°17' E 006°53'0 0.0
2017-Apr-23 06:58N 58°17' E 006°53'0 0.0
2017-Apr-23 06:22N 58°17' E 006°53'0 0.0
2017-Apr-23 05:58N 58°17' E 006°53'0 0.0
2017-Apr-23 05:25N 58°17' E 006°53'0 0.0
2017-Apr-23 04:58N 58°17' E 006°53'0 0.0
2017-Apr-23 04:28N 58°17' E 006°53'0 0.0
2017-Apr-23 03:58N 58°17' E 006°53'0 0.0
2017-Apr-23 03:28N 58°17' E 006°53'0 0.0
2017-Apr-23 02:58N 58°17' E 006°53'0 0.0
2017-Apr-23 02:28N 58°17' E 006°53'0 0.0
2017-Apr-23 01:55N 58°17' E 006°53'0 0.0
2017-Apr-23 01:25N 58°17' E 006°53'0 0.0
2017-Apr-23 00:55N 58°17' E 006°53'0 0.0
2017-Apr-23 00:28N 58°17' E 006°53'0 0.0
2017-Apr-22 23:58N 58°16' E 006°53'0 0.0
2017-Apr-22 23:25N 58°17' E 006°53'0 0.0
2017-Apr-22 22:55N 58°17' E 006°53'0 0.0
2017-Apr-22 22:28N 58°17' E 006°53'0 0.0
2017-Apr-22 21:58N 58°17' E 006°53'0 0.0
2017-Apr-22 21:28N 58°17' E 006°53'0 0.0
2017-Apr-22 20:55N 58°17' E 006°53'0 0.0
2017-Apr-22 20:25N 58°17' E 006°53'0 0.0
2017-Apr-22 19:58N 58°17' E 006°53'0 0.7
2017-Apr-22 19:30N 58°16' E 006°53'510.0
2017-Apr-22 19:00N 58°14' E 006°45'5 9.3
2017-Apr-22 18:30N 58°14' E 006°36'611.3
2017-Apr-22 18:00N 58°15' E 006°25'611.6
2017-Apr-22 17:30N 58°18' E 006°15'5 9.6
2017-Apr-22 17:00N 58°19' E 006°07'611.4
2017-Apr-22 16:30N 58°21' E 005°57'611.7
2017-Apr-22 16:00N 58°25' E 005°48'611.5
2017-Apr-22 15:31N 58°29' E 005°40'611.5
2017-Apr-22 15:00N 58°34' E 005°33'611.5
2017-Apr-22 14:30N 58°39' E 005°28'1110.7
2017-Apr-22 13:31N 58°49' E 005°25'510.6
2017-Apr-22 13:01N 58°53' E 005°31'611.3
2017-Apr-22 12:31N 58°59' E 005°33'4 7.9
2017-Apr-22 12:01N 59°02' E 005°37'510.7
2017-Apr-22 11:30N 59°02' E 005°47'510.4
2017-Apr-22 11:00N 58°57' E 005°47'5 8.5
2017-Apr-22 10:28N 58°52' E 005°45'0 0.0
2017-Apr-22 09:58N 58°52' E 005°45'0 0.0
2017-Apr-22 09:28N 58°52' E 005°45'0 0.0
2017-Apr-22 08:58N 58°52' E 005°45'0 0.0
2017-Apr-22 08:28N 58°52' E 005°45'0 0.0
2017-Apr-22 07:58N 58°52' E 005°45'0 0.0
2017-Apr-22 07:28N 58°52' E 005°45'0 0.0
2017-Apr-22 06:58N 58°52' E 005°45'0 0.0
2017-Apr-22 06:28N 58°52' E 005°45'0 0.0
2017-Apr-22 05:58N 58°52' E 005°45'0 0.0
2017-Apr-22 05:28N 58°52' E 005°45'0 0.0
2017-Apr-22 04:58N 58°52' E 005°45'0 0.0
2017-Apr-22 04:28N 58°52' E 005°45'0 0.0
2017-Apr-22 03:58N 58°52' E 005°45'0 0.0
2017-Apr-22 03:28N 58°52' E 005°45'0 0.0
2017-Apr-22 02:58N 58°52' E 005°45'0 0.0
2017-Apr-22 02:28N 58°52' E 005°45'0 0.0
2017-Apr-22 01:58N 58°52' E 005°45'0 0.0
2017-Apr-22 01:28N 58°52' E 005°45'0 0.0
2017-Apr-22 00:58N 58°52' E 005°45'0 0.0
2017-Apr-22 00:28N 58°52' E 005°45'0 0.0
2017-Apr-21 23:58N 58°52' E 005°45'0 0.0
2017-Apr-21 23:28N 58°52' E 005°45'0 0.0
2017-Apr-21 22:58N 58°52' E 005°45'0 0.0
2017-Apr-21 22:28N 58°52' E 005°45'0 0.0
2017-Apr-21 21:58N 58°52' E 005°45'0 0.2
2017-Apr-21 21:30N 58°52' E 005°45'5 9.7
2017-Apr-21 21:00N 58°57' E 005°47'510.2
2017-Apr-21 20:31N 59°02' E 005°46'510.2
2017-Apr-21 20:00N 59°02' E 005°36'3 6.8
2017-Apr-21 19:30N 58°59' E 005°33'5 9.1
2017-Apr-21 19:00N 58°55' E 005°33'4 8.3
2017-Apr-21 18:30N 58°51' E 005°29'4 7.9
2017-Apr-21 18:00N 58°49' E 005°22'3 5.5
2017-Apr-21 17:30N 58°47' E 005°23'3 5.8
2017-Apr-21 17:00N 58°44' E 005°24'3 5.1
2017-Apr-21 16:30N 58°41' E 005°25'2 4.5
2017-Apr-21 16:00N 58°39' E 005°27'3 5.2
2017-Apr-21 15:30N 58°37' E 005°29'3 5.9
2017-Apr-21 15:00N 58°34' E 005°32'3 6.2
2017-Apr-21 14:30N 58°32' E 005°35'7 6.5
2017-Apr-21 13:30N 58°27' E 005°44'4 7.7
2017-Apr-21 13:00N 58°24' E 005°49'4 7.9
2017-Apr-21 12:31N 58°22' E 005°55'4 8.2
2017-Apr-21 12:00N 58°19' E 006°01'4 8.6
2017-Apr-21 11:30N 58°17' E 006°07'4 8.3
2017-Apr-21 11:00N 58°14' E 006°14'4 8.2
2017-Apr-21 10:29N 58°11' E 006°20'4 8.3
2017-Apr-21 10:00N 58°09' E 006°26'4 7.9
2017-Apr-21 09:30N 58°06' E 006°30'4 7.1
2017-Apr-21 09:00N 58°03' E 006°35'3 7.0
2017-Apr-21 08:30N 58°02' E 006°41'4 7.0
2017-Apr-21 08:00N 57°60' E 006°46'4 7.3
2017-Apr-21 07:30N 57°58' E 006°53'4 8.4
2017-Apr-21 07:00N 57°56' E 006°60'4 8.3
2017-Apr-21 06:29N 57°55' E 007°08'4 8.5
2017-Apr-21 06:00N 57°55' E 007°16'4 8.9
2017-Apr-21 05:30N 57°55' E 007°24'4 8.8
2017-Apr-21 05:00N 57°55' E 007°32'4 8.6
2017-Apr-21 04:30N 57°55' E 007°40'5 9.5
2017-Apr-21 04:00N 57°57' E 007°49'5 9.5
2017-Apr-21 03:30N 57°58' E 007°57'5 9.3
2017-Apr-21 02:59N 58°00' E 008°05'5 9.6
2017-Apr-21 02:30N 58°03' E 008°13'5 9.6
2017-Apr-21 02:00N 58°05' E 008°21'5 9.8
2017-Apr-21 01:31N 58°08' E 008°28'5 9.9
2017-Apr-21 01:01N 58°12' E 008°35'510.0
2017-Apr-21 00:30N 58°15' E 008°41'510.1
2017-Apr-21 00:00N 58°19' E 008°48'5 9.8
2017-Apr-20 23:30N 58°22' E 008°54'510.2
2017-Apr-20 23:00N 58°26' E 009°01'510.3
2017-Apr-20 22:30N 58°30' E 009°07'510.2
2017-Apr-20 22:00N 58°34' E 009°13'5 9.9
2017-Apr-20 21:30N 58°38' E 009°19'5 9.6
2017-Apr-20 21:00N 58°42' E 009°25'5 9.3
2017-Apr-20 20:30N 58°45' E 009°31'5 9.3
2017-Apr-20 20:00N 58°49' E 009°37'5 8.9
2017-Apr-20 19:30N 58°52' E 009°43'4 8.7
2017-Apr-20 19:00N 58°56' E 009°47'3 5.8
2017-Apr-20 18:30N 58°56' E 009°52'4 8.2
2017-Apr-20 18:00N 58°56' E 010°00'3 6.6
2017-Apr-20 17:30N 58°58' E 010°05'4 8.8
2017-Apr-20 17:00N 59°03' E 010°03'0 0.3
2017-Apr-20 16:30N 59°03' E 010°03'0 0.0
2017-Apr-20 16:00N 59°03' E 010°03'0 0.0
2017-Apr-20 15:30N 59°03' E 010°03'0 0.0
2017-Apr-20 15:00N 59°03' E 010°03'0 0.0
2017-Apr-20 14:30N 59°03' E 010°03'0 0.0
2017-Apr-20 13:30N 59°03' E 010°03'0 0.0
2017-Apr-20 13:00N 59°03' E 010°03'0 0.0
2017-Apr-20 12:30N 59°03' E 010°03'0 0.0
2017-Apr-20 12:00N 59°03' E 010°03'0 0.0
2017-Apr-20 11:30N 59°03' E 010°03'0 0.0
2017-Apr-20 11:00N 59°03' E 010°03'0 0.0
2017-Apr-20 10:30N 59°03' E 010°03'0 0.0
2017-Apr-20 10:00N 59°03' E 010°03'0 0.0
2017-Apr-20 09:27N 59°03' E 010°03'0 0.0
2017-Apr-20 09:00N 59°03' E 010°03'0 0.0
2017-Apr-20 08:30N 59°03' E 010°03'0 0.1
2017-Apr-20 08:00N 59°03' E 010°03'0 0.0
2017-Apr-20 07:30N 59°03' E 010°03'0 0.0
2017-Apr-20 07:00N 59°03' E 010°03'  
Track history (hours):
 
Tides and Currents Weather Stations Pressure Air Temp Water Temp Dewpoint Dewpoint Depression Visibility Wind Speed Wind Dir Waves Ship Positions

Blue Bay

Last reported at 2017-Apr-30 06:56 UTC. Time now 2017-Apr-30 07:07 UTC.
Position N 51°30' E 000°58'.

Length 90 m; draft 5.6 m.

Type: Cargo ship. MMSI: 304519000.

Date/timePositionNaut miles runAvg speedWind from/ knotsBaromVisibWave heightAir tempDewpointWater temp
2017-Apr-30 06:56N 51°30' E 000°58'0 0.0
2017-Apr-30 06:20N 51°30' E 000°58'0 0.0
2017-Apr-30 05:59N 51°30' E 000°58'0 0.0
2017-Apr-30 05:29N 51°30' E 000°58'0 0.0
2017-Apr-30 04:59N 51°30' E 000°58'0 0.0
2017-Apr-30 04:29N 51°30' E 000°58'0 0.1
2017-Apr-30 03:59N 51°30' E 000°58'0 0.3
2017-Apr-30 03:29N 51°30' E 000°58'0 0.1
2017-Apr-30 02:59N 51°30' E 000°58'0 0.0
2017-Apr-30 02:29N 51°30' E 000°58'0 0.0
2017-Apr-30 01:53N 51°30' E 000°58'0 0.0
2017-Apr-30 01:23N 51°30' E 000°58'0 0.0
2017-Apr-30 00:59N 51°30' E 000°58'0 0.0
2017-Apr-30 00:26N 51°30' E 000°58'0 0.0
2017-Apr-29 23:56N 51°30' E 000°58'0 0.0
2017-Apr-29 23:29N 51°30' E 000°58'0 0.0
2017-Apr-29 22:53N 51°30' E 000°58'0 0.0
2017-Apr-29 22:29N 51°30' E 000°58'0 0.1
2017-Apr-29 21:59N 51°30' E 000°58'0 0.0
2017-Apr-29 21:26N 51°30' E 000°58'0 0.2
2017-Apr-29 20:59N 51°30' E 000°58'0 0.1
2017-Apr-29 20:17N 51°30' E 000°58'0 0.0
2017-Apr-29 19:59N 51°30' E 000°58'0 0.0
2017-Apr-29 19:26N 51°30' E 000°58'0 0.0
2017-Apr-29 18:59N 51°30' E 000°58'0 0.0
2017-Apr-29 18:29N 51°30' E 000°58'0 0.0
2017-Apr-29 17:56N 51°30' E 000°58'0 0.0
2017-Apr-29 17:23N 51°30' E 000°58'0 0.0
2017-Apr-29 16:56N 51°30' E 000°58'0 0.0
2017-Apr-29 16:20N 51°30' E 000°58'0 0.0
2017-Apr-29 15:59N 51°30' E 000°58'1 3.1
2017-Apr-29 15:30N 51°29' E 000°57'4 8.8
2017-Apr-29 15:01N 51°30' E 001°03'1110.8
2017-Apr-29 14:00N 51°29' E 001°21'611.3
2017-Apr-29 13:31N 51°30' E 001°30'510.5
2017-Apr-29 13:01N 51°32' E 001°37'510.6
2017-Apr-29 12:31N 51°34' E 001°45'510.7
2017-Apr-29 12:01N 51°37' E 001°53'611.2
2017-Apr-29 11:31N 51°40' E 002°00'611.9
2017-Apr-29 11:01N 51°43' E 002°08'612.1
2017-Apr-29 10:30N 51°47' E 002°16'58 9.7
2017-Apr-29 04:31N 52°30' E 003°19'0 7.7
2017-Apr-29 04:29N 52°31' E 003°19'4 7.8
2017-Apr-29 04:00N 52°33' E 003°23'4 7.8
2017-Apr-29 03:30N 52°36' E 003°28'4 8.1
2017-Apr-29 03:00N 52°39' E 003°32'170 8.9
2017-Apr-28 07:52N 54°01' E 007°41'4 9.0
2017-Apr-28 07:27N 54°02' E 007°48'4 9.5
2017-Apr-28 06:59N 54°02' E 007°55'5 9.7
2017-Apr-28 06:30N 54°02' E 008°03'510.2
2017-Apr-28 06:00N 54°01' E 008°12'611.2
2017-Apr-28 05:30N 53°60' E 008°21'612.2
2017-Apr-28 05:00N 53°59' E 008°31'612.4
2017-Apr-28 04:30N 53°56' E 008°40'612.6
2017-Apr-28 04:00N 53°51' E 008°47'611.1
2017-Apr-28 03:30N 53°51' E 008°57'5 9.6
2017-Apr-28 03:01N 53°53' E 009°04'4 8.8
2017-Apr-28 02:30N 53°53' E 009°12'4 8.0
2017-Apr-28 02:00N 53°52' E 009°18'4 7.3
2017-Apr-28 01:30N 53°49' E 009°22'4 7.3
2017-Apr-28 01:00N 53°46' E 009°24'4 7.2
2017-Apr-28 00:30N 53°43' E 009°29'3 6.9
2017-Apr-28 00:00N 53°40' E 009°31'4 7.2
2017-Apr-27 23:30N 53°37' E 009°34'5 9.1
2017-Apr-27 23:00N 53°34' E 009°40'611.2
2017-Apr-27 22:30N 53°33' E 009°50'5 9.1
2017-Apr-27 22:00N 53°31' E 009°56'3 5.4
2017-Apr-27 21:30N 53°28' E 009°58'0 0.0
2017-Apr-27 20:57N 53°28' E 009°58'0 0.0
2017-Apr-27 20:27N 53°28' E 009°58'0 0.0
2017-Apr-27 19:57N 53°28' E 009°58'0 0.0
2017-Apr-27 19:30N 53°28' E 009°58'0 0.0
2017-Apr-27 19:00N 53°28' E 009°58'0 0.0
2017-Apr-27 18:30N 53°28' E 009°58'0 0.0
2017-Apr-27 18:00N 53°28' E 009°58'0 0.0
2017-Apr-27 17:27N 53°28' E 009°58'0 0.0
2017-Apr-27 16:57N 53°28' E 009°58'0 0.0
2017-Apr-27 16:30N 53°28' E 009°58'0 0.0
2017-Apr-27 16:00N 53°28' E 009°58'0 0.0
2017-Apr-27 15:30N 53°28' E 009°58'0 0.0
2017-Apr-27 14:57N 53°28' E 009°58'0 0.0
2017-Apr-27 14:00N 53°28' E 009°58'0 0.0
2017-Apr-27 13:30N 53°28' E 009°58'0 0.0
2017-Apr-27 12:57N 53°28' E 009°58'0 0.0
2017-Apr-27 12:30N 53°28' E 009°58'0 0.0
2017-Apr-27 12:00N 53°28' E 009°58'0 0.0
2017-Apr-27 11:30N 53°28' E 009°58'0 0.0
2017-Apr-27 10:57N 53°28' E 009°58'0 0.0
2017-Apr-27 10:27N 53°28' E 009°58'0 0.0
2017-Apr-27 09:57N 53°28' E 009°58'0 0.7
2017-Apr-27 09:30N 53°29' E 009°58'0 0.6
2017-Apr-27 08:59N 53°28' E 009°58'0 0.0
2017-Apr-27 08:29N 53°28' E 009°58'0 0.0
2017-Apr-27 07:59N 53°28' E 009°58'0 0.0
2017-Apr-27 07:26N 53°28' E 009°58'0 0.0
2017-Apr-27 06:59N 53°28' E 009°58'0 0.0
2017-Apr-27 06:29N 53°28' E 009°58'0 0.0
2017-Apr-27 05:59N 53°28' E 009°58'0 0.0
2017-Apr-27 05:29N 53°28' E 009°58'0 0.0
2017-Apr-27 04:59N 53°28' E 009°58'0 0.0
2017-Apr-27 04:29N 53°28' E 009°58'0 0.0
2017-Apr-27 04:01N 53°28' E 009°58'2 3.6
2017-Apr-27 03:30N 53°30' E 009°57'3 5.9
2017-Apr-27 03:00N 53°32' E 009°55'611.4
2017-Apr-27 02:30N 53°34' E 009°45'5 9.6
2017-Apr-27 02:01N 53°35' E 009°37'3 6.9
2017-Apr-27 01:30N 53°37' E 009°33'0 0.1
2017-Apr-27 01:00N 53°37' E 009°33'0 0.0
2017-Apr-27 00:31N 53°37' E 009°33'0 0.0
2017-Apr-27 00:00N 53°37' E 009°33'0 0.0
2017-Apr-26 23:30N 53°37' E 009°33'0 0.1
2017-Apr-26 23:00N 53°37' E 009°33'0 0.0
2017-Apr-26 22:30N 53°37' E 009°33'0 0.2
2017-Apr-26 22:00N 53°37' E 009°33'0 0.1
2017-Apr-26 21:30N 53°37' E 009°33'0 0.0
2017-Apr-26 21:01N 53°37' E 009°33'0 0.0
2017-Apr-26 20:30N 53°37' E 009°33'0 0.0
2017-Apr-26 20:00N 53°37' E 009°33'0 0.0
2017-Apr-26 19:31N 53°37' E 009°33'0 0.0
2017-Apr-26 19:00N 53°37' E 009°33'0 0.0
2017-Apr-26 18:30N 53°37' E 009°33'0 0.0
2017-Apr-26 18:00N 53°37' E 009°33'0 0.0
2017-Apr-26 17:30N 53°37' E 009°33'0 0.1
2017-Apr-26 17:00N 53°37' E 009°33'0 0.0
2017-Apr-26 16:30N 53°37' E 009°33'0 0.1
2017-Apr-26 16:00N 53°37' E 009°33'0 0.2
2017-Apr-26 15:30N 53°37' E 009°33'0 0.1
2017-Apr-26 15:00N 53°37' E 009°33'0 0.0
2017-Apr-26 14:30N 53°37' E 009°33'0 0.0
2017-Apr-26 13:30N 53°37' E 009°33'0 0.0
2017-Apr-26 13:00N 53°37' E 009°33'0 0.0
2017-Apr-26 12:30N 53°37' E 009°33'0 0.0
2017-Apr-26 12:00N 53°37' E 009°33'0 0.0
2017-Apr-26 11:30N 53°37' E 009°33'0 0.0
2017-Apr-26 11:00N 53°37' E 009°33'0 0.0
2017-Apr-26 10:31N 53°37' E 009°33'0 0.0
2017-Apr-26 10:00N 53°37' E 009°33'0 0.2
2017-Apr-26 09:30N 53°37' E 009°33'0 0.0
2017-Apr-26 09:00N 53°37' E 009°33'0 0.0
2017-Apr-26 08:30N 53°37' E 009°33'0 0.0
2017-Apr-26 08:00N 53°37' E 009°33'0 0.0
2017-Apr-26 07:31N 53°37' E 009°33'0 0.0
2017-Apr-26 07:00N 53°37' E 009°33'0 0.0
2017-Apr-26 06:30N 53°37' E 009°33'0 0.0
2017-Apr-26 06:00N 53°37' E 009°33'0 0.0
2017-Apr-26 05:30N 53°37' E 009°33'0 0.0
2017-Apr-26 05:01N 53°37' E 009°33'0 0.0
2017-Apr-26 04:30N 53°37' E 009°33'0 0.0
2017-Apr-26 04:00N 53°37' E 009°33'0 0.1
2017-Apr-26 03:30N 53°37' E 009°33'0 0.1
2017-Apr-26 03:00N 53°37' E 009°33'0 0.2
2017-Apr-26 02:31N 53°37' E 009°33'0 0.0
2017-Apr-26 02:00N 53°37' E 009°33'0 0.0
2017-Apr-26 01:30N 53°37' E 009°33'0 0.0
2017-Apr-26 01:00N 53°37' E 009°33'0 0.0
2017-Apr-26 00:30N 53°37' E 009°33'0 0.0
2017-Apr-26 00:00N 53°37' E 009°33'0 0.0
2017-Apr-25 23:31N 53°37' E 009°33'0 0.0
2017-Apr-25 23:00N 53°37' E 009°33'2 3.9
2017-Apr-25 22:30N 53°39' E 009°31'612.6
2017-Apr-25 22:01N 53°44' E 009°26'713.1
2017-Apr-25 21:30N 53°50' E 009°21'612.9
2017-Apr-25 21:00N 53°53' E 009°11'611.8
2017-Apr-25 20:30N 53°51' E 009°01'611.6
2017-Apr-25 20:00N 53°50' E 008°52'510.2
2017-Apr-25 19:31N 53°52' E 008°44'510.5
2017-Apr-25 19:00N 53°57' E 008°39'510.6
2017-Apr-25 18:30N 53°58' E 008°30'510.2
2017-Apr-25 18:00N 53°59' E 008°21'611.4
2017-Apr-25 17:30N 53°59' E 008°12'510.0
2017-Apr-25 17:00N 53°59' E 008°03'510.0
2017-Apr-25 16:29N 54°02' E 007°56'41 9.5
2017-Apr-25 12:08N 54°41' E 007°33'1 9.8
2017-Apr-25 12:00N 54°43' E 007°33'510.1
2017-Apr-25 11:30N 54°48' E 007°32'510.3
2017-Apr-25 11:00N 54°53' E 007°31'510.3
2017-Apr-25 10:30N 54°58' E 007°30'510.5
2017-Apr-25 10:00N 55°03' E 007°29'510.5
2017-Apr-25 09:30N 55°08' E 007°28'510.7
2017-Apr-25 09:00N 55°14' E 007°27'610.9
2017-Apr-25 08:30N 55°19' E 007°26'811.2
2017-Apr-25 07:46N 55°27' E 007°24'411.4
2017-Apr-25 07:28N 55°31' E 007°23'13110.4
2017-Apr-24 18:53N 57°38' E 006°27'410.0
2017-Apr-24 18:30N 57°41' E 006°27'510.0
2017-Apr-24 18:00N 57°46' E 006°26'510.1
2017-Apr-24 17:30N 57°51' E 006°26'5 9.8
2017-Apr-24 17:00N 57°56' E 006°24'5 9.9
2017-Apr-24 16:30N 58°01' E 006°24'510.8
2017-Apr-24 16:00N 58°07' E 006°23'4 7.5
2017-Apr-24 15:30N 58°09' E 006°28'4 8.1
2017-Apr-24 15:00N 58°11' E 006°35'4 8.8
2017-Apr-24 14:29N 58°13' E 006°43'7 6.6
2017-Apr-24 13:28N 58°17' E 006°53'0 0.0
2017-Apr-24 12:58N 58°17' E 006°53'0 0.0
2017-Apr-24 12:28N 58°17' E 006°53'0 0.0
2017-Apr-24 11:58N 58°16' E 006°53'0 0.0
2017-Apr-24 11:28N 58°17' E 006°53'0 0.0
2017-Apr-24 10:58N 58°17' E 006°53'0 0.0
2017-Apr-24 10:22N 58°17' E 006°53'0 0.0
2017-Apr-24 09:55N 58°17' E 006°53'0 0.0
2017-Apr-24 09:28N 58°17' E 006°53'0 0.0
2017-Apr-24 08:58N 58°17' E 006°53'0 0.0
2017-Apr-24 08:28N 58°17' E 006°53'0 0.0
2017-Apr-24 07:58N 58°17' E 006°53'0 0.0
2017-Apr-24 07:28N 58°17' E 006°53'0 0.0
2017-Apr-24 06:55N 58°17' E 006°53'0 0.0
2017-Apr-24 06:25N 58°17' E 006°53'0 0.0
2017-Apr-24 05:58N 58°17' E 006°53'0 0.0
2017-Apr-24 05:22N 58°17' E 006°53'0 0.0
2017-Apr-24 04:58N 58°17' E 006°53'0 0.0
2017-Apr-24 04:28N 58°17' E 006°53'0 0.0
2017-Apr-24 03:55N 58°17' E 006°53'0 0.0
2017-Apr-24 03:28N 58°17' E 006°53'0 0.0
2017-Apr-24 02:58N 58°17' E 006°53'0 0.0
2017-Apr-24 02:28N 58°17' E 006°53'0 0.0
2017-Apr-24 01:58N 58°17' E 006°53'0 0.0
2017-Apr-24 01:28N 58°17' E 006°53'0 0.0
2017-Apr-24 00:55N 58°17' E 006°53'0 0.0
2017-Apr-24 00:25N 58°17' E 006°53'0 0.0
2017-Apr-23 23:58N 58°17' E 006°53'0 0.0
2017-Apr-23 23:28N 58°17' E 006°53'0 0.0
2017-Apr-23 22:55N 58°17' E 006°53'0 0.0
2017-Apr-23 22:25N 58°17' E 006°53'0 0.0
2017-Apr-23 21:58N 58°17' E 006°53'0 0.0
2017-Apr-23 21:25N 58°17' E 006°53'0 0.0
2017-Apr-23 20:58N 58°17' E 006°53'0 0.0
2017-Apr-23 20:28N 58°17' E 006°53'0 0.0
2017-Apr-23 19:58N 58°17' E 006°53'0 0.0
2017-Apr-23 19:28N 58°17' E 006°53'0 0.0
2017-Apr-23 18:58N 58°17' E 006°53'0 0.0
2017-Apr-23 18:28N 58°17' E 006°53'0 0.0
2017-Apr-23 17:49N 58°17' E 006°53'0 0.0
2017-Apr-23 17:28N 58°17' E 006°53'0 0.0
2017-Apr-23 16:58N 58°17' E 006°53'0 0.0
2017-Apr-23 16:28N 58°17' E 006°53'0 0.0
2017-Apr-23 15:58N 58°17' E 006°53'0 0.0
2017-Apr-23 15:28N 58°17' E 006°53'0 0.0
2017-Apr-23 14:55N 58°17' E 006°53'0 0.0
2017-Apr-23 13:55N 58°17' E 006°53'0 0.0
2017-Apr-23 13:28N 58°17' E 006°53'0 0.0
2017-Apr-23 12:58N 58°17' E 006°53'0 0.0
2017-Apr-23 12:28N 58°17' E 006°53'0 0.0
2017-Apr-23 11:58N 58°17' E 006°53'0 0.0
2017-Apr-23 11:25N 58°17' E 006°53'0 0.0
2017-Apr-23 10:55N 58°17' E 006°53'0 0.0
2017-Apr-23 10:28N 58°17' E 006°53'0 0.0
2017-Apr-23 09:55N 58°17' E 006°53'0 0.0
2017-Apr-23 09:28N 58°17' E 006°53'0 0.0
2017-Apr-23 08:58N 58°17' E 006°53'0 0.0
2017-Apr-23 08:28N 58°17' E 006°53'0 0.0
2017-Apr-23 07:58N 58°17' E 006°53'0 0.0
2017-Apr-23 07:28N 58°17' E 006°53'0 0.0
2017-Apr-23 06:58N 58°17' E 006°53'0 0.0
2017-Apr-23 06:22N 58°17' E 006°53'0 0.0
2017-Apr-23 05:58N 58°17' E 006°53'0 0.0
2017-Apr-23 05:25N 58°17' E 006°53'0 0.0
2017-Apr-23 04:58N 58°17' E 006°53'0 0.0
2017-Apr-23 04:28N 58°17' E 006°53'0 0.0
2017-Apr-23 03:58N 58°17' E 006°53'0 0.0
2017-Apr-23 03:28N 58°17' E 006°53'0 0.0
2017-Apr-23 02:58N 58°17' E 006°53'0 0.0
2017-Apr-23 02:28N 58°17' E 006°53'0 0.0
2017-Apr-23 01:55N 58°17' E 006°53'0 0.0
2017-Apr-23 01:25N 58°17' E 006°53'0 0.0
2017-Apr-23 00:55N 58°17' E 006°53'0 0.0
2017-Apr-23 00:28N 58°17' E 006°53'0 0.0
2017-Apr-22 23:58N 58°16' E 006°53'0 0.0
2017-Apr-22 23:25N 58°17' E 006°53'0 0.0
2017-Apr-22 22:55N 58°17' E 006°53'0 0.0
2017-Apr-22 22:28N 58°17' E 006°53'0 0.0
2017-Apr-22 21:58N 58°17' E 006°53'0 0.0
2017-Apr-22 21:28N 58°17' E 006°53'0 0.0
2017-Apr-22 20:55N 58°17' E 006°53'0 0.0
2017-Apr-22 20:25N 58°17' E 006°53'0 0.0
2017-Apr-22 19:58N 58°17' E 006°53'0 0.7
2017-Apr-22 19:30N 58°16' E 006°53'510.0
2017-Apr-22 19:00N 58°14' E 006°45'5 9.3
2017-Apr-22 18:30N 58°14' E 006°36'611.3
2017-Apr-22 18:00N 58°15' E 006°25'611.6
2017-Apr-22 17:30N 58°18' E 006°15'5 9.6
2017-Apr-22 17:00N 58°19' E 006°07'611.4
2017-Apr-22 16:30N 58°21' E 005°57'611.7
2017-Apr-22 16:00N 58°25' E 005°48'611.5
2017-Apr-22 15:31N 58°29' E 005°40'611.5
2017-Apr-22 15:00N 58°34' E 005°33'611.5
2017-Apr-22 14:30N 58°39' E 005°28'1110.7
2017-Apr-22 13:31N 58°49' E 005°25'510.6
2017-Apr-22 13:01N 58°53' E 005°31'611.3
2017-Apr-22 12:31N 58°59' E 005°33'4 7.9
2017-Apr-22 12:01N 59°02' E 005°37'510.7
2017-Apr-22 11:30N 59°02' E 005°47'510.4
2017-Apr-22 11:00N 58°57' E 005°47'5 8.5
2017-Apr-22 10:28N 58°52' E 005°45'0 0.0
2017-Apr-22 09:58N 58°52' E 005°45'0 0.0
2017-Apr-22 09:28N 58°52' E 005°45'0 0.0
2017-Apr-22 08:58N 58°52' E 005°45'0 0.0
2017-Apr-22 08:28N 58°52' E 005°45'0 0.0
2017-Apr-22 07:58N 58°52' E 005°45'0 0.0
2017-Apr-22 07:28N 58°52' E 005°45'0 0.0
2017-Apr-22 06:58N 58°52' E 005°45'0 0.0
2017-Apr-22 06:28N 58°52' E 005°45'0 0.0
2017-Apr-22 05:58N 58°52' E 005°45'0 0.0
2017-Apr-22 05:28N 58°52' E 005°45'0 0.0
2017-Apr-22 04:58N 58°52' E 005°45'0 0.0
2017-Apr-22 04:28N 58°52' E 005°45'0 0.0
2017-Apr-22 03:58N 58°52' E 005°45'0 0.0
2017-Apr-22 03:28N 58°52' E 005°45'0 0.0
2017-Apr-22 02:58N 58°52' E 005°45'0 0.0
2017-Apr-22 02:28N 58°52' E 005°45'0 0.0
2017-Apr-22 01:58N 58°52' E 005°45'0 0.0
2017-Apr-22 01:28N 58°52' E 005°45'0 0.0
2017-Apr-22 00:58N 58°52' E 005°45'0 0.0
2017-Apr-22 00:28N 58°52' E 005°45'0 0.0
2017-Apr-21 23:58N 58°52' E 005°45'0 0.0
2017-Apr-21 23:28N 58°52' E 005°45'0 0.0
2017-Apr-21 22:58N 58°52' E 005°45'0 0.0
2017-Apr-21 22:28N 58°52' E 005°45'0 0.0
2017-Apr-21 21:58N 58°52' E 005°45'0 0.2
2017-Apr-21 21:30N 58°52' E 005°45'5 9.7
2017-Apr-21 21:00N 58°57' E 005°47'510.2
2017-Apr-21 20:31N 59°02' E 005°46'510.2
2017-Apr-21 20:00N 59°02' E 005°36'3 6.8
2017-Apr-21 19:30N 58°59' E 005°33'5 9.1
2017-Apr-21 19:00N 58°55' E 005°33'4 8.3
2017-Apr-21 18:30N 58°51' E 005°29'4 7.9
2017-Apr-21 18:00N 58°49' E 005°22'3 5.5
2017-Apr-21 17:30N 58°47' E 005°23'3 5.8
2017-Apr-21 17:00N 58°44' E 005°24'3 5.1
2017-Apr-21 16:30N 58°41' E 005°25'2 4.5
2017-Apr-21 16:00N 58°39' E 005°27'3 5.2
2017-Apr-21 15:30N 58°37' E 005°29'3 5.9
2017-Apr-21 15:00N 58°34' E 005°32'3 6.2
2017-Apr-21 14:30N 58°32' E 005°35'7 6.5
2017-Apr-21 13:30N 58°27' E 005°44'4 7.7
2017-Apr-21 13:00N 58°24' E 005°49'4 7.9
2017-Apr-21 12:31N 58°22' E 005°55'4 8.2
2017-Apr-21 12:00N 58°19' E 006°01'4 8.6
2017-Apr-21 11:30N 58°17' E 006°07'4 8.3
2017-Apr-21 11:00N 58°14' E 006°14'4 8.2
2017-Apr-21 10:29N 58°11' E 006°20'4 8.3
2017-Apr-21 10:00N 58°09' E 006°26'4 7.9
2017-Apr-21 09:30N 58°06' E 006°30'4 7.1
2017-Apr-21 09:00N 58°03' E 006°35'3 7.0
2017-Apr-21 08:30N 58°02' E 006°41'4 7.0
2017-Apr-21 08:00N 57°60' E 006°46'4 7.3
2017-Apr-21 07:30N 57°58' E 006°53'4 8.4
2017-Apr-21 07:00N 57°56' E 006°60'4 8.3
2017-Apr-21 06:29N 57°55' E 007°08'4 8.5
2017-Apr-21 06:00N 57°55' E 007°16'4 8.9
2017-Apr-21 05:30N 57°55' E 007°24'4 8.8
2017-Apr-21 05:00N 57°55' E 007°32'4 8.6
2017-Apr-21 04:30N 57°55' E 007°40'5 9.5
2017-Apr-21 04:00N 57°57' E 007°49'5 9.5
2017-Apr-21 03:30N 57°58' E 007°57'5 9.3
2017-Apr-21 02:59N 58°00' E 008°05'5 9.6
2017-Apr-21 02:30N 58°03' E 008°13'5 9.6
2017-Apr-21 02:00N 58°05' E 008°21'5 9.8
2017-Apr-21 01:31N 58°08' E 008°28'5 9.9
2017-Apr-21 01:01N 58°12' E 008°35'510.0
2017-Apr-21 00:30N 58°15' E 008°41'510.1
2017-Apr-21 00:00N 58°19' E 008°48'5 9.8
2017-Apr-20 23:30N 58°22' E 008°54'510.2
2017-Apr-20 23:00N 58°26' E 009°01'510.3
2017-Apr-20 22:30N 58°30' E 009°07'510.2
2017-Apr-20 22:00N 58°34' E 009°13'5 9.9
2017-Apr-20 21:30N 58°38' E 009°19'5 9.6
2017-Apr-20 21:00N 58°42' E 009°25'5 9.3
2017-Apr-20 20:30N 58°45' E 009°31'5 9.3
2017-Apr-20 20:00N 58°49' E 009°37'5 8.9
2017-Apr-20 19:30N 58°52' E 009°43'4 8.7
2017-Apr-20 19:00N 58°56' E 009°47'3 5.8
2017-Apr-20 18:30N 58°56' E 009°52'4 8.2
2017-Apr-20 18:00N 58°56' E 010°00'3 6.6
2017-Apr-20 17:30N 58°58' E 010°05'4 8.8
2017-Apr-20 17:00N 59°03' E 010°03'0 0.3
2017-Apr-20 16:30N 59°03' E 010°03'0 0.0
2017-Apr-20 16:00N 59°03' E 010°03'0 0.0
2017-Apr-20 15:30N 59°03' E 010°03'0 0.0
2017-Apr-20 15:00N 59°03' E 010°03'0 0.0
2017-Apr-20 14:30N 59°03' E 010°03'0 0.0
2017-Apr-20 13:30N 59°03' E 010°03'0 0.0
2017-Apr-20 13:00N 59°03' E 010°03'0 0.0
2017-Apr-20 12:30N 59°03' E 010°03'0 0.0
2017-Apr-20 12:00N 59°03' E 010°03'0 0.0
2017-Apr-20 11:30N 59°03' E 010°03'0 0.0
2017-Apr-20 11:00N 59°03' E 010°03'0 0.0
2017-Apr-20 10:30N 59°03' E 010°03'0 0.0
2017-Apr-20 10:00N 59°03' E 010°03'0 0.0
2017-Apr-20 09:27N 59°03' E 010°03'0 0.0
2017-Apr-20 09:00N 59°03' E 010°03'0 0.0
2017-Apr-20 08:30N 59°03' E 010°03'0 0.1
2017-Apr-20 08:00N 59°03' E 010°03'0 0.0
2017-Apr-20 07:30N 59°03' E 010°03'0 0.0
2017-Apr-20 07:00N 59°03' E 010°03'  

Dump ship's entire track history